• Join FlightAware (Why Join?)
  • Login
  • US Flag 
Gobble Gobble! 
02:51PM EST


 

Airport Tracker/Info


-or-


 

Live Flight TrackerFlight Track Log ✈ SWA2624 ✈ 18-Apr-2013 ✈ KABQ - KLAS

Flight Track Log - Related Links

Times and Time Zones

All times are in EDT time to prevent confusion due to time zone crossing. See the SWA2624 flight status page for this flight to view local times or setup timezone preferences in your user account.

Time Position Orientation Groundspeed Altitude Reporting Facility
EDT Latitude Longitude Course Direction KTS MPH feet Rate Location/Type
12:52AM 35.0158 -106.6408 283° West 169 194 6,200  Level Albuquerque Center
12:52AM 35.0186 -106.6558 283° West 171 197 6,700 1,560 Climbing Albuquerque Center
12:53AM 35.0450 -106.7217 296° West 231 266 8,300 1,800 Climbing Albuquerque Center
12:54AM 35.0678 -106.7703 300° West 257 296 9,900 1,980 Climbing Albuquerque Center
12:55AM 35.1008 -106.8628 294° West 301 346 11,800 2,700 Climbing Albuquerque Center
12:56AM 35.1214 -106.9964 281° West 342 394 15,400 3,180 Climbing Albuquerque Center
12:57AM 35.1389 -107.1158 280° West 354 407 18,300 2,820 Climbing Albuquerque Center
12:58AM 35.1511 -107.2411 277° West 375 432 21,100 2,520 Climbing Albuquerque Center
12:59AM 35.1642 -107.3739 277° West 390 449 23,400 2,280 Climbing Albuquerque Center
01:00AM 35.1778 -107.5108 277° West 401 461 25,800 2,220 Climbing Albuquerque Center
01:01AM 35.1936 -107.6669 277° West 418 481 28,000 2,340 Climbing Albuquerque Center
01:02AM 35.2064 -107.8086 276° West 432 497 30,600 2,400 Climbing Albuquerque Center
01:03AM 35.2192 -107.9422 277° West 421 484 33,000 1,680 Climbing Albuquerque Center
01:04AM 35.2344 -108.0944 277° West 407 468 34,000 480 Climbing Albuquerque Center
01:05AM 35.2469 -108.2278 277° West 410 472 34,000  Level Albuquerque Center
01:06AM 35.2594 -108.3594 277° West 408 470 34,000 960 Level Albuquerque Center
01:07AM 35.2747 -108.5147 277° West 410 472 36,000 960 Climbing Albuquerque Center
01:08AM 35.2861 -108.6408 276° West 398 458 36,000  Level Albuquerque Center
01:09AM 35.2967 -108.7675 276° West 392 451 36,000  Level Albuquerque Center
01:11AM 35.3136 -108.9731 276° West  Level FlightAware Approximate
01:12AM 35.3328 -109.1692 276° West 390 449 36,000  Level Albuquerque Center
01:13AM 35.3439 -109.2972 276° West 393 452 36,000  Level Albuquerque Center
01:14AM 35.3569 -109.4489 276° West 398 458 36,000  Level Albuquerque Center
01:15AM 35.3675 -109.5783 276° West 400 460 36,000  Level Albuquerque Center
01:16AM 35.3778 -109.7075 276° West 400 460 36,000  Level Albuquerque Center
01:17AM 35.3886 -109.8561 275° West 395 455 36,000  Level Albuquerque Center
01:18AM 35.3978 -109.9836 275° West 392 451 36,000  Level Albuquerque Center
01:19AM 35.4069 -110.1094 275° West 391 450 36,000  Level Albuquerque Center
01:20AM 35.4181 -110.2614 275° West 397 457 36,000  Level Albuquerque Center
01:21AM 35.4278 -110.3911 275° West 401 461 36,000  Level Albuquerque Center
01:22AM 35.4361 -110.5217 275° West 401 461 36,000  Level Albuquerque Center
01:23AM 35.4481 -110.6761 275° West 405 466 36,000  Level Albuquerque Center
01:24AM 35.4575 -110.8092 275° West 408 470 36,000  Level Albuquerque Center
01:25AM 35.4675 -110.9439 275° West 412 474 36,000  Level Albuquerque Center
01:26AM 35.4789 -111.1011 275° West 415 478 36,000  Level Albuquerque Center
01:27AM 35.4875 -111.2375 274° West 417 480 36,000  Level Albuquerque Center
01:28AM 35.4975 -111.3744 275° West 419 482 36,000  Level Albuquerque Center
01:29AM 35.5069 -111.5139 275° West 430 495 36,000  Level Albuquerque Center
01:30AM 35.5172 -111.6564 275° West 428 493 36,000  Level Albuquerque Center
01:31AM 35.5264 -111.8233 274° West 415 478 36,000  Level Albuquerque Center
01:32AM 35.5358 -111.9639 275° West 415 478 36,000  Level Albuquerque Center
01:33AM 35.5444 -112.1053 274° West 416 479 36,000  Level Albuquerque Center
01:34AM 35.5536 -112.2461 275° West 418 481 36,000  Level Albuquerque Center
01:35AM 35.5617 -112.3869 274° West 417 480 36,000  Level Albuquerque Center
01:36AM 35.5700 -112.5286 274° West 420 483 36,000  Level Albuquerque Center
01:37AM 35.5789 -112.6689 274° West 419 482 36,000  Level Albuquerque Center
01:38AM 35.5864 -112.8092 274° West 419 482 36,000  Level Albuquerque Center
01:39AM 35.5944 -112.9636 274° West 421 484 36,000 -1,200 Level Los Angeles Center
01:40AM 35.6022 -113.1028 274° West 411 473 33,600 -2,640 Descending Los Angeles Center
01:41AM 35.6092 -113.2450 273° West 415 478 30,700 -2,640 Descending Los Angeles Center
01:42AM 35.6175 -113.3947 274° West 416 479 28,200 -2,400 Descending Los Angeles Center
01:43AM 35.6242 -113.5306 273° West 403 464 25,900 -2,280 Descending Los Angeles Center
01:44AM 35.6414 -113.6617 279° West 393 452 23,600 -2,220 Descending Los Angeles Center
01:45AM 35.6600 -113.7889 280° West 383 441 21,400 -2,160 Descending Los Angeles Center
01:46AM 35.6772 -113.9139 280° West 374 430 19,200 -2,040 Descending Los Angeles Center
01:47AM 35.6942 -114.0350 280° West 363 418 17,300 -2,220 Descending Los Angeles Center
01:48AM 35.7142 -114.1761 280° West 356 410 14,700 -2,400 Descending Los Angeles Center
01:49AM 35.7208 -114.2108 283° West 358 412 14,100 -2,100 Descending Los Angeles Center
01:49AM 35.7297 -114.2922 278° West 346 398 12,600 -1,500 Descending Los Angeles Center
01:50AM 35.7600 -114.3950 290° West 336 387 11,600 -1,020 Descending Los Angeles Center
01:51AM 35.8258 -114.4667 319° Northwest 320 368 10,600 -1,080 Descending Los Angeles Center
01:52AM 35.8886 -114.5314 320° Northwest 304 350 9,500 -1,140 Descending Los Angeles Center
01:53AM 35.9342 -114.6053 307° West 282 325 8,300 -840 Descending Los Angeles Center
01:55AM 35.9681 -114.6881 297° West 275 316 7,900 -420 Descending Los Angeles Center
01:56AM 36.0000 -114.7650 297° West 265 305 7,500 -780 Descending Los Angeles Center
01:57AM 36.0350 -114.8519 296° West 241 277 6,400 -1,140 Descending Los Angeles Center
01:58AM 36.0667 -114.9267 298° West 243 280 5,300 -1,200 Descending Los Angeles Center
01:59AM 36.0742 -115.0011 277° West 219 252 4,000 -1,200 Descending Los Angeles Center
02:00AM 36.0725 -115.0628 268° West 169 194 3,000 -900 Descending Los Angeles Center
02:01AM 36.0728 -115.1133 270° West 144 166 2,200 -840 Descending Los Angeles Center
02:03AM 36.0667 -115.1500 270° West  Level FlightAware Approximate